sensor_id;sensor_type;location;lat;lon;timestamp;P1;durP1;ratioP1;P2;durP2;ratioP2
44572;SDS011;31762;45.420;10.072;2023-10-19T00:04:34;17.55;;;14.35;;
44572;SDS011;31762;45.420;10.072;2023-10-19T00:09:36;15.48;;;13.85;;
44572;SDS011;31762;45.420;10.072;2023-10-19T00:14:38;15.23;;;12.68;;
44572;SDS011;31762;45.420;10.072;2023-10-19T00:19:40;17.23;;;14.25;;
44572;SDS011;31762;45.420;10.072;2023-10-19T00:24:43;14.00;;;12.30;;
44572;SDS011;31762;45.420;10.072;2023-10-19T00:29:45;15.82;;;13.00;;
44572;SDS011;31762;45.420;10.072;2023-10-19T00:34:48;16.67;;;14.90;;
44572;SDS011;31762;45.420;10.072;2023-10-19T00:39:50;16.50;;;14.88;;
44572;SDS011;31762;45.420;10.072;2023-10-19T00:44:52;17.60;;;15.45;;
44572;SDS011;31762;45.420;10.072;2023-10-19T00:49:54;17.50;;;15.45;;
44572;SDS011;31762;45.420;10.072;2023-10-19T00:54:57;15.57;;;14.07;;
44572;SDS011;31762;45.420;10.072;2023-10-19T00:59:59;16.55;;;14.85;;
44572;SDS011;31762;45.420;10.072;2023-10-19T01:05:03;19.98;;;15.57;;
44572;SDS011;31762;45.420;10.072;2023-10-19T01:10:06;16.65;;;14.80;;
44572;SDS011;31762;45.420;10.072;2023-10-19T01:15:12;16.08;;;14.40;;
44572;SDS011;31762;45.420;10.072;2023-10-19T01:20:16;17.17;;;15.38;;
44572;SDS011;31762;45.420;10.072;2023-10-19T01:25:19;15.93;;;14.33;;
44572;SDS011;31762;45.420;10.072;2023-10-19T01:30:21;16.83;;;14.95;;
44572;SDS011;31762;45.420;10.072;2023-10-19T01:35:23;20.23;;;15.90;;
44572;SDS011;31762;45.420;10.072;2023-10-19T01:40:25;16.75;;;13.60;;
44572;SDS011;31762;45.420;10.072;2023-10-19T01:45:28;15.95;;;14.38;;
44572;SDS011;31762;45.420;10.072;2023-10-19T01:50:30;16.60;;;14.90;;
44572;SDS011;31762;45.420;10.072;2023-10-19T01:55:36;15.80;;;14.30;;
44572;SDS011;31762;45.420;10.072;2023-10-19T02:00:38;16.67;;;15.00;;
44572;SDS011;31762;45.420;10.072;2023-10-19T02:05:41;16.42;;;13.98;;
44572;SDS011;31762;45.420;10.072;2023-10-19T02:10:46;14.80;;;13.30;;
44572;SDS011;31762;45.420;10.072;2023-10-19T02:15:49;16.23;;;14.55;;
44572;SDS011;31762;45.420;10.072;2023-10-19T02:20:51;16.30;;;14.70;;
44572;SDS011;31762;45.420;10.072;2023-10-19T02:25:53;19.02;;;14.77;;
44572;SDS011;31762;45.420;10.072;2023-10-19T02:30:55;17.00;;;15.35;;
44572;SDS011;31762;45.420;10.072;2023-10-19T02:35:58;16.70;;;15.18;;
44572;SDS011;31762;45.420;10.072;2023-10-19T02:41:00;18.55;;;15.48;;
44572;SDS011;31762;45.420;10.072;2023-10-19T02:46:02;15.60;;;13.98;;
44572;SDS011;31762;45.420;10.072;2023-10-19T02:51:05;18.42;;;16.58;;
44572;SDS011;31762;45.420;10.072;2023-10-19T02:56:14;17.83;;;15.93;;
44572;SDS011;31762;45.420;10.072;2023-10-19T03:01:17;17.15;;;15.48;;
44572;SDS011;31762;45.420;10.072;2023-10-19T03:06:22;17.33;;;15.30;;
44572;SDS011;31762;45.420;10.072;2023-10-19T03:11:25;19.35;;;17.15;;
44572;SDS011;31762;45.420;10.072;2023-10-19T03:16:27;17.70;;;15.80;;
44572;SDS011;31762;45.420;10.072;2023-10-19T03:21:30;19.13;;;17.13;;
44572;SDS011;31762;45.420;10.072;2023-10-19T03:26:32;19.13;;;17.23;;
44572;SDS011;31762;45.420;10.072;2023-10-19T03:31:34;19.85;;;17.85;;
44572;SDS011;31762;45.420;10.072;2023-10-19T03:36:37;23.20;;;18.92;;
44572;SDS011;31762;45.420;10.072;2023-10-19T03:41:39;17.88;;;16.17;;
44572;SDS011;31762;45.420;10.072;2023-10-19T03:46:42;18.85;;;17.00;;
44572;SDS011;31762;45.420;10.072;2023-10-19T03:51:44;21.20;;;17.75;;
44572;SDS011;31762;45.420;10.072;2023-10-19T03:56:49;17.35;;;15.73;;
44572;SDS011;31762;45.420;10.072;2023-10-19T04:01:51;21.42;;;19.27;;
44572;SDS011;31762;45.420;10.072;2023-10-19T04:06:54;19.80;;;17.73;;
44572;SDS011;31762;45.420;10.072;2023-10-19T04:11:56;19.17;;;17.25;;
44572;SDS011;31762;45.420;10.072;2023-10-19T04:16:59;19.88;;;17.75;;
44572;SDS011;31762;45.420;10.072;2023-10-19T04:22:01;17.42;;;15.80;;
44572;SDS011;31762;45.420;10.072;2023-10-19T04:27:03;18.02;;;16.17;;
44572;SDS011;31762;45.420;10.072;2023-10-19T04:32:05;16.80;;;15.10;;
44572;SDS011;31762;45.420;10.072;2023-10-19T04:37:08;19.48;;;17.63;;
44572;SDS011;31762;45.420;10.072;2023-10-19T04:42:10;18.83;;;17.02;;
44572;SDS011;31762;45.420;10.072;2023-10-19T04:47:12;19.02;;;17.08;;
44572;SDS011;31762;45.420;10.072;2023-10-19T04:52:14;20.52;;;18.33;;
44572;SDS011;31762;45.420;10.072;2023-10-19T04:57:17;19.33;;;17.33;;
44572;SDS011;31762;45.420;10.072;2023-10-19T05:02:19;21.70;;;19.60;;
44572;SDS011;31762;45.420;10.072;2023-10-19T05:07:21;19.42;;;17.48;;
44572;SDS011;31762;45.420;10.072;2023-10-19T05:12:24;21.50;;;18.48;;
44572;SDS011;31762;45.420;10.072;2023-10-19T05:17:26;19.77;;;17.83;;
44572;SDS011;31762;45.420;10.072;2023-10-19T05:22:29;20.15;;;18.27;;
44572;SDS011;31762;45.420;10.072;2023-10-19T05:27:31;19.33;;;17.15;;
44572;SDS011;31762;45.420;10.072;2023-10-19T05:32:33;20.85;;;18.77;;
44572;SDS011;31762;45.420;10.072;2023-10-19T05:37:36;18.00;;;16.40;;
44572;SDS011;31762;45.420;10.072;2023-10-19T05:42:38;20.75;;;18.73;;
44572;SDS011;31762;45.420;10.072;2023-10-19T05:47:40;17.77;;;15.98;;
44572;SDS011;31762;45.420;10.072;2023-10-19T05:52:43;19.38;;;17.45;;
44572;SDS011;31762;45.420;10.072;2023-10-19T05:57:46;17.97;;;16.17;;
44572;SDS011;31762;45.420;10.072;2023-10-19T06:02:48;19.95;;;18.10;;
44572;SDS011;31762;45.420;10.072;2023-10-19T06:07:51;18.30;;;16.45;;
44572;SDS011;31762;45.420;10.072;2023-10-19T06:12:53;17.88;;;16.10;;
44572;SDS011;31762;45.420;10.072;2023-10-19T06:17:55;19.10;;;17.15;;
44572;SDS011;31762;45.420;10.072;2023-10-19T06:22:58;19.45;;;17.65;;
44572;SDS011;31762;45.420;10.072;2023-10-19T06:28:00;20.20;;;17.27;;
44572;SDS011;31762;45.420;10.072;2023-10-19T06:33:03;19.80;;;18.00;;
44572;SDS011;31762;45.420;10.072;2023-10-19T06:38:05;20.15;;;18.27;;
44572;SDS011;31762;45.420;10.072;2023-10-19T06:43:07;17.98;;;16.17;;
44572;SDS011;31762;45.420;10.072;2023-10-19T06:48:10;18.85;;;17.02;;
44572;SDS011;31762;45.420;10.072;2023-10-19T06:53:12;18.90;;;17.00;;
44572;SDS011;31762;45.420;10.072;2023-10-19T06:58:14;18.20;;;16.60;;
44572;SDS011;31762;45.420;10.072;2023-10-19T07:03:16;19.75;;;17.98;;
44572;SDS011;31762;45.420;10.072;2023-10-19T07:08:19;18.92;;;17.08;;
44572;SDS011;31762;45.420;10.072;2023-10-19T07:13:21;18.45;;;16.65;;
44572;SDS011;31762;45.420;10.072;2023-10-19T07:18:23;18.40;;;16.63;;
44572;SDS011;31762;45.420;10.072;2023-10-19T07:23:25;18.13;;;16.45;;
44572;SDS011;31762;45.420;10.072;2023-10-19T07:28:28;18.23;;;16.42;;
44572;SDS011;31762;45.420;10.072;2023-10-19T07:33:30;18.02;;;16.33;;
44572;SDS011;31762;45.420;10.072;2023-10-19T07:38:33;19.13;;;17.42;;
44572;SDS011;31762;45.420;10.072;2023-10-19T07:43:36;17.98;;;16.30;;
44572;SDS011;31762;45.420;10.072;2023-10-19T07:48:38;17.13;;;15.50;;
44572;SDS011;31762;45.420;10.072;2023-10-19T07:53:40;16.65;;;15.07;;
44572;SDS011;31762;45.420;10.072;2023-10-19T07:58:43;18.20;;;16.42;;
44572;SDS011;31762;45.420;10.072;2023-10-19T08:03:46;17.50;;;15.80;;
44572;SDS011;31762;45.420;10.072;2023-10-19T08:08:48;16.58;;;15.07;;
44572;SDS011;31762;45.420;10.072;2023-10-19T08:13:50;17.52;;;15.82;;
44572;SDS011;31762;45.420;10.072;2023-10-19T08:18:53;16.48;;;14.98;;
44572;SDS011;31762;45.420;10.072;2023-10-19T08:23:57;18.30;;;16.63;;
44572;SDS011;31762;45.420;10.072;2023-10-19T08:28:59;17.05;;;15.35;;
44572;SDS011;31762;45.420;10.072;2023-10-19T08:34:02;16.77;;;15.27;;
44572;SDS011;31762;45.420;10.072;2023-10-19T08:39:07;15.10;;;13.80;;
44572;SDS011;31762;45.420;10.072;2023-10-19T08:44:10;14.48;;;13.20;;
44572;SDS011;31762;45.420;10.072;2023-10-19T08:49:15;13.05;;;12.00;;
44572;SDS011;31762;45.420;10.072;2023-10-19T08:54:18;11.57;;;10.60;;
44572;SDS011;31762;45.420;10.072;2023-10-19T08:59:20;11.07;;;10.15;;
44572;SDS011;31762;45.420;10.072;2023-10-19T09:04:23;11.48;;;10.57;;
44572;SDS011;31762;45.420;10.072;2023-10-19T09:09:26;10.10;;;9.27;;
44572;SDS011;31762;45.420;10.072;2023-10-19T09:14:30;11.00;;;10.10;;
44572;SDS011;31762;45.420;10.072;2023-10-19T09:19:37;10.43;;;9.52;;
44572;SDS011;31762;45.420;10.072;2023-10-19T09:24:40;10.32;;;9.10;;
44572;SDS011;31762;45.420;10.072;2023-10-19T09:29:42;8.82;;;8.13;;
44572;SDS011;31762;45.420;10.072;2023-10-19T09:34:44;8.88;;;8.13;;
44572;SDS011;31762;45.420;10.072;2023-10-19T09:39:47;8.60;;;7.90;;
44572;SDS011;31762;45.420;10.072;2023-10-19T09:44:52;8.60;;;7.97;;
44572;SDS011;31762;45.420;10.072;2023-10-19T09:49:56;7.80;;;7.20;;
44572;SDS011;31762;45.420;10.072;2023-10-19T09:55:00;8.07;;;7.38;;
44572;SDS011;31762;45.420;10.072;2023-10-19T10:00:05;7.80;;;7.15;;
44572;SDS011;31762;45.420;10.072;2023-10-19T10:05:53;7.38;;;6.78;;
44572;SDS011;31762;45.420;10.072;2023-10-19T10:10:30;6.90;;;6.32;;
44572;SDS011;31762;45.420;10.072;2023-10-19T10:15:40;6.80;;;6.30;;
44572;SDS011;31762;45.420;10.072;2023-10-19T10:20:43;7.25;;;6.60;;
44572;SDS011;31762;45.420;10.072;2023-10-19T10:25:45;6.50;;;5.90;;
44572;SDS011;31762;45.420;10.072;2023-10-19T10:31:07;8.13;;;7.53;;
44572;SDS011;31762;45.420;10.072;2023-10-19T10:36:09;6.20;;;5.60;;
44572;SDS011;31762;45.420;10.072;2023-10-19T10:41:11;6.43;;;5.93;;
44572;SDS011;31762;45.420;10.072;2023-10-19T10:46:14;6.45;;;5.95;;
44572;SDS011;31762;45.420;10.072;2023-10-19T10:51:26;5.38;;;4.97;;
44572;SDS011;31762;45.420;10.072;2023-10-19T10:56:28;5.65;;;5.18;;
44572;SDS011;31762;45.420;10.072;2023-10-19T11:01:31;6.43;;;5.93;;
44572;SDS011;31762;45.420;10.072;2023-10-19T11:06:45;5.47;;;5.07;;
44572;SDS011;31762;45.420;10.072;2023-10-19T11:11:47;4.97;;;4.57;;
44572;SDS011;31762;45.420;10.072;2023-10-19T11:16:49;4.93;;;4.57;;
44572;SDS011;31762;45.420;10.072;2023-10-19T11:21:53;4.30;;;4.00;;
44572;SDS011;31762;45.420;10.072;2023-10-19T11:26:59;3.88;;;3.58;;
44572;SDS011;31762;45.420;10.072;2023-10-19T11:32:01;4.28;;;3.97;;
44572;SDS011;31762;45.420;10.072;2023-10-19T11:37:04;3.70;;;3.40;;
44572;SDS011;31762;45.420;10.072;2023-10-19T11:42:06;4.22;;;3.83;;
44572;SDS011;31762;45.420;10.072;2023-10-19T11:47:08;3.95;;;3.65;;
44572;SDS011;31762;45.420;10.072;2023-10-19T11:52:11;4.22;;;3.45;;
44572;SDS011;31762;45.420;10.072;2023-10-19T11:57:13;3.83;;;3.53;;
44572;SDS011;31762;45.420;10.072;2023-10-19T12:02:16;3.42;;;3.17;;
44572;SDS011;31762;45.420;10.072;2023-10-19T12:07:18;3.35;;;3.10;;
44572;SDS011;31762;45.420;10.072;2023-10-19T12:12:21;3.65;;;3.35;;
44572;SDS011;31762;45.420;10.072;2023-10-19T12:17:23;3.35;;;3.10;;
44572;SDS011;31762;45.420;10.072;2023-10-19T12:22:26;3.10;;;2.90;;
44572;SDS011;31762;45.420;10.072;2023-10-19T12:27:28;2.88;;;2.67;;
44572;SDS011;31762;45.420;10.072;2023-10-19T12:32:31;3.45;;;3.25;;
44572;SDS011;31762;45.420;10.072;2023-10-19T12:37:33;3.03;;;2.83;;
44572;SDS011;31762;45.420;10.072;2023-10-19T12:42:36;3.15;;;2.95;;
44572;SDS011;31762;45.420;10.072;2023-10-19T12:47:38;3.33;;;2.70;;
44572;SDS011;31762;45.420;10.072;2023-10-19T12:52:41;2.80;;;2.60;;
44572;SDS011;31762;45.420;10.072;2023-10-19T12:57:43;2.85;;;2.65;;
44572;SDS011;31762;45.420;10.072;2023-10-19T13:02:46;2.40;;;2.30;;
44572;SDS011;31762;45.420;10.072;2023-10-19T13:07:49;3.07;;;2.87;;
44572;SDS011;31762;45.420;10.072;2023-10-19T13:12:51;3.60;;;3.30;;
44572;SDS011;31762;45.420;10.072;2023-10-19T13:17:54;2.90;;;2.70;;
44572;SDS011;31762;45.420;10.072;2023-10-19T13:22:57;3.00;;;2.80;;
44572;SDS011;31762;45.420;10.072;2023-10-19T13:27:59;3.30;;;3.10;;
44572;SDS011;31762;45.420;10.072;2023-10-19T13:33:03;3.03;;;2.83;;
44572;SDS011;31762;45.420;10.072;2023-10-19T13:38:06;2.92;;;2.72;;
44572;SDS011;31762;45.420;10.072;2023-10-19T13:43:09;3.47;;;3.17;;
44572;SDS011;31762;45.420;10.072;2023-10-19T13:48:12;2.50;;;2.30;;
44572;SDS011;31762;45.420;10.072;2023-10-19T13:53:15;3.50;;;3.27;;
44572;SDS011;31762;45.420;10.072;2023-10-19T13:58:18;3.77;;;3.47;;
44572;SDS011;31762;45.420;10.072;2023-10-19T14:03:20;3.03;;;2.83;;
44572;SDS011;31762;45.420;10.072;2023-10-19T14:08:23;3.47;;;3.17;;
44572;SDS011;31762;45.420;10.072;2023-10-19T14:13:25;3.08;;;2.88;;
44572;SDS011;31762;45.420;10.072;2023-10-19T14:18:27;3.13;;;2.92;;
44572;SDS011;31762;45.420;10.072;2023-10-19T14:23:29;3.05;;;2.78;;
44572;SDS011;31762;45.420;10.072;2023-10-19T14:28:32;3.55;;;3.25;;
44572;SDS011;31762;45.420;10.072;2023-10-19T14:33:34;3.20;;;2.90;;
44572;SDS011;31762;45.420;10.072;2023-10-19T14:38:36;3.30;;;3.00;;
44572;SDS011;31762;45.420;10.072;2023-10-19T14:43:39;2.90;;;2.70;;
44572;SDS011;31762;45.420;10.072;2023-10-19T14:48:42;3.65;;;3.33;;
44572;SDS011;31762;45.420;10.072;2023-10-19T14:53:44;3.00;;;2.78;;
44572;SDS011;31762;45.420;10.072;2023-10-19T14:58:46;3.30;;;3.00;;
44572;SDS011;31762;45.420;10.072;2023-10-19T15:03:49;3.17;;;2.88;;
44572;SDS011;31762;45.420;10.072;2023-10-19T15:08:51;3.85;;;3.38;;
44572;SDS011;31762;45.420;10.072;2023-10-19T15:13:53;2.97;;;2.78;;
44572;SDS011;31762;45.420;10.072;2023-10-19T15:18:56;3.20;;;3.00;;
44572;SDS011;31762;45.420;10.072;2023-10-19T15:23:58;3.63;;;3.33;;
44572;SDS011;31762;45.420;10.072;2023-10-19T15:29:00;3.42;;;3.22;;
44572;SDS011;31762;45.420;10.072;2023-10-19T15:34:03;3.67;;;3.40;;
44572;SDS011;31762;45.420;10.072;2023-10-19T15:39:05;3.20;;;3.00;;
44572;SDS011;31762;45.420;10.072;2023-10-19T15:44:08;3.88;;;3.58;;
44572;SDS011;31762;45.420;10.072;2023-10-19T15:49:10;3.83;;;3.53;;
44572;SDS011;31762;45.420;10.072;2023-10-19T15:54:16;3.25;;;3.03;;
44572;SDS011;31762;45.420;10.072;2023-10-19T15:59:18;3.03;;;2.83;;
44572;SDS011;31762;45.420;10.072;2023-10-19T16:04:21;4.28;;;3.97;;
44572;SDS011;31762;45.420;10.072;2023-10-19T16:09:24;2.63;;;2.42;;
44572;SDS011;31762;45.420;10.072;2023-10-19T16:14:27;3.50;;;3.20;;
44572;SDS011;31762;45.420;10.072;2023-10-19T16:19:29;3.05;;;2.85;;
44572;SDS011;31762;45.420;10.072;2023-10-19T16:24:32;3.93;;;3.63;;
44572;SDS011;31762;45.420;10.072;2023-10-19T16:29:35;3.90;;;3.60;;
44572;SDS011;31762;45.420;10.072;2023-10-19T16:34:37;3.47;;;3.22;;
44572;SDS011;31762;45.420;10.072;2023-10-19T16:39:39;3.55;;;3.33;;
44572;SDS011;31762;45.420;10.072;2023-10-19T16:44:42;3.63;;;3.33;;
44572;SDS011;31762;45.420;10.072;2023-10-19T16:49:44;2.78;;;2.58;;
44572;SDS011;31762;45.420;10.072;2023-10-19T16:54:46;3.67;;;3.38;;
44572;SDS011;31762;45.420;10.072;2023-10-19T16:59:49;4.60;;;4.07;;
44572;SDS011;31762;45.420;10.072;2023-10-19T17:04:52;3.87;;;3.57;;
44572;SDS011;31762;45.420;10.072;2023-10-19T17:09:54;2.90;;;2.70;;
44572;SDS011;31762;45.420;10.072;2023-10-19T17:14:57;3.58;;;3.25;;
44572;SDS011;31762;45.420;10.072;2023-10-19T17:19:59;3.10;;;2.90;;
44572;SDS011;31762;45.420;10.072;2023-10-19T17:25:01;3.40;;;3.13;;
44572;SDS011;31762;45.420;10.072;2023-10-19T17:30:04;3.05;;;2.85;;
44572;SDS011;31762;45.420;10.072;2023-10-19T17:35:07;2.93;;;2.73;;
44572;SDS011;31762;45.420;10.072;2023-10-19T17:40:09;3.42;;;3.13;;
44572;SDS011;31762;45.420;10.072;2023-10-19T17:45:13;5.83;;;3.47;;
44572;SDS011;31762;45.420;10.072;2023-10-19T17:50:15;2.67;;;2.47;;
44572;SDS011;31762;45.420;10.072;2023-10-19T17:55:18;3.13;;;2.85;;
44572;SDS011;31762;45.420;10.072;2023-10-19T18:00:20;3.40;;;3.10;;
44572;SDS011;31762;45.420;10.072;2023-10-19T18:05:23;3.45;;;3.20;;
44572;SDS011;31762;45.420;10.072;2023-10-19T18:10:25;3.67;;;3.40;;
44572;SDS011;31762;45.420;10.072;2023-10-19T18:15:28;3.90;;;3.60;;
44572;SDS011;31762;45.420;10.072;2023-10-19T18:20:30;3.72;;;3.42;;
44572;SDS011;31762;45.420;10.072;2023-10-19T18:25:33;4.30;;;3.90;;
44572;SDS011;31762;45.420;10.072;2023-10-19T18:30:35;3.50;;;3.20;;
44572;SDS011;31762;45.420;10.072;2023-10-19T18:35:37;3.03;;;2.83;;
44572;SDS011;31762;45.420;10.072;2023-10-19T18:40:40;3.13;;;2.92;;
44572;SDS011;31762;45.420;10.072;2023-10-19T18:45:42;3.08;;;2.88;;
44572;SDS011;31762;45.420;10.072;2023-10-19T18:50:54;3.45;;;3.15;;
44572;SDS011;31762;45.420;10.072;2023-10-19T18:55:57;3.67;;;3.38;;
44572;SDS011;31762;45.420;10.072;2023-10-19T19:01:00;3.80;;;3.03;;
44572;SDS011;31762;45.420;10.072;2023-10-19T19:06:03;3.20;;;3.00;;
44572;SDS011;31762;45.420;10.072;2023-10-19T19:11:10;3.47;;;3.17;;
44572;SDS011;31762;45.420;10.072;2023-10-19T19:16:12;3.22;;;3.03;;
44572;SDS011;31762;45.420;10.072;2023-10-19T19:26:18;3.40;;;3.17;;
44572;SDS011;31762;45.420;10.072;2023-10-19T19:31:21;2.77;;;2.57;;
44572;SDS011;31762;45.420;10.072;2023-10-19T19:36:24;4.38;;;3.13;;
44572;SDS011;31762;45.420;10.072;2023-10-19T19:41:27;3.33;;;3.03;;
44572;SDS011;31762;45.420;10.072;2023-10-19T19:46:30;3.22;;;2.92;;
44572;SDS011;31762;45.420;10.072;2023-10-19T19:51:32;3.63;;;3.28;;
44572;SDS011;31762;45.420;10.072;2023-10-19T19:56:35;2.95;;;2.75;;
44572;SDS011;31762;45.420;10.072;2023-10-19T20:01:38;3.72;;;3.22;;
44572;SDS011;31762;45.420;10.072;2023-10-19T20:06:40;3.47;;;3.10;;
44572;SDS011;31762;45.420;10.072;2023-10-19T20:11:43;3.70;;;3.50;;
44572;SDS011;31762;45.420;10.072;2023-10-19T20:16:47;4.53;;;4.00;;
44572;SDS011;31762;45.420;10.072;2023-10-19T20:21:50;2.97;;;2.67;;
44572;SDS011;31762;45.420;10.072;2023-10-19T20:26:53;3.40;;;3.10;;
44572;SDS011;31762;45.420;10.072;2023-10-19T20:31:56;3.75;;;3.45;;
44572;SDS011;31762;45.420;10.072;2023-10-19T20:36:59;3.05;;;2.85;;
44572;SDS011;31762;45.420;10.072;2023-10-19T20:42:02;3.25;;;2.97;;
44572;SDS011;31762;45.420;10.072;2023-10-19T20:47:08;3.42;;;3.13;;
44572;SDS011;31762;45.420;10.072;2023-10-19T20:52:11;3.28;;;3.00;;
44572;SDS011;31762;45.420;10.072;2023-10-19T20:57:13;2.90;;;2.70;;
44572;SDS011;31762;45.420;10.072;2023-10-19T21:02:15;3.25;;;2.95;;
44572;SDS011;31762;45.420;10.072;2023-10-19T21:07:18;3.70;;;3.40;;
44572;SDS011;31762;45.420;10.072;2023-10-19T21:12:21;2.88;;;2.67;;
44572;SDS011;31762;45.420;10.072;2023-10-19T21:17:24;3.08;;;2.88;;
44572;SDS011;31762;45.420;10.072;2023-10-19T21:22:26;3.47;;;3.00;;
44572;SDS011;31762;45.420;10.072;2023-10-19T21:27:28;4.10;;;3.40;;
44572;SDS011;31762;45.420;10.072;2023-10-19T21:32:31;3.35;;;3.05;;
44572;SDS011;31762;45.420;10.072;2023-10-19T21:37:33;3.03;;;2.83;;
44572;SDS011;31762;45.420;10.072;2023-10-19T21:42:35;3.78;;;3.42;;
44572;SDS011;31762;45.420;10.072;2023-10-19T21:47:38;3.70;;;3.40;;
44572;SDS011;31762;45.420;10.072;2023-10-19T21:52:40;4.80;;;3.85;;
44572;SDS011;31762;45.420;10.072;2023-10-19T21:57:43;3.50;;;3.20;;
44572;SDS011;31762;45.420;10.072;2023-10-19T22:02:46;4.00;;;3.70;;
44572;SDS011;31762;45.420;10.072;2023-10-19T22:08:08;3.65;;;3.45;;
44572;SDS011;31762;45.420;10.072;2023-10-19T22:13:11;6.27;;;4.13;;
44572;SDS011;31762;45.420;10.072;2023-10-19T22:18:13;4.35;;;3.90;;
44572;SDS011;31762;45.420;10.072;2023-10-19T22:23:16;4.45;;;4.05;;
44572;SDS011;31762;45.420;10.072;2023-10-19T22:28:18;3.80;;;3.50;;
44572;SDS011;31762;45.420;10.072;2023-10-19T22:33:21;4.15;;;3.70;;
44572;SDS011;31762;45.420;10.072;2023-10-19T22:38:23;4.63;;;4.22;;
44572;SDS011;31762;45.420;10.072;2023-10-19T22:43:25;4.78;;;4.38;;
44572;SDS011;31762;45.420;10.072;2023-10-19T22:48:28;4.80;;;4.40;;
44572;SDS011;31762;45.420;10.072;2023-10-19T22:53:30;4.85;;;4.38;;
44572;SDS011;31762;45.420;10.072;2023-10-19T22:58:32;5.00;;;4.18;;
44572;SDS011;31762;45.420;10.072;2023-10-19T23:03:35;4.80;;;4.40;;
44572;SDS011;31762;45.420;10.072;2023-10-19T23:08:37;4.25;;;3.85;;
44572;SDS011;31762;45.420;10.072;2023-10-19T23:13:40;4.30;;;4.00;;
44572;SDS011;31762;45.420;10.072;2023-10-19T23:18:42;4.88;;;4.38;;
44572;SDS011;31762;45.420;10.072;2023-10-19T23:23:44;4.32;;;3.92;;
44572;SDS011;31762;45.420;10.072;2023-10-19T23:28:47;4.28;;;3.97;;
44572;SDS011;31762;45.420;10.072;2023-10-19T23:33:49;4.18;;;3.88;;
44572;SDS011;31762;45.420;10.072;2023-10-19T23:38:51;3.45;;;3.22;;
44572;SDS011;31762;45.420;10.072;2023-10-19T23:43:54;4.63;;;3.97;;
44572;SDS011;31762;45.420;10.072;2023-10-19T23:48:56;4.43;;;4.03;;
44572;SDS011;31762;45.420;10.072;2023-10-19T23:53:58;4.50;;;4.10;;
44572;SDS011;31762;45.420;10.072;2023-10-19T23:59:01;5.03;;;4.43;;
